createdAt,value
2018-05-08T00:02:16.901Z,58.70
2018-05-08T00:04:44.849Z,58.50
2018-05-08T00:07:12.760Z,58.10
2018-05-08T00:12:09.736Z,58.00
2018-05-08T00:14:37.652Z,57.80
2018-05-08T00:17:05.572Z,57.90
2018-05-08T00:19:33.517Z,57.70
2018-05-08T00:22:01.431Z,57.90
2018-05-08T00:24:29.359Z,58.20
2018-05-08T00:26:57.283Z,58.40
2018-05-08T00:29:25.191Z,58.50
2018-05-08T00:31:53.101Z,58.70
2018-05-08T00:34:21.148Z,58.70
2018-05-08T00:39:17.925Z,58.60
2018-05-08T00:41:45.851Z,58.60
2018-05-08T00:44:13.775Z,58.80
2018-05-08T00:46:41.679Z,58.60
2018-05-08T00:49:09.682Z,58.20
2018-05-08T00:51:37.595Z,57.90
2018-05-08T00:54:05.507Z,57.80
2018-05-08T00:56:33.447Z,57.50
2018-05-08T00:59:01.364Z,57.10
2018-05-08T01:01:29.282Z,56.90
2018-05-08T01:03:57.769Z,57.10
2018-05-08T01:06:26.347Z,57.10
2018-05-08T01:08:54.250Z,57.20
2018-05-08T01:13:51.185Z,58.00
2018-05-08T01:16:19.102Z,58.20
2018-05-08T01:18:48.270Z,58.50
2018-05-08T01:21:16.183Z,58.70
2018-05-08T01:26:12.955Z,59.10
2018-05-08T06:11:48.776Z,57.00
2018-05-08T06:19:14.470Z,57.00
2018-05-08T06:21:42.516Z,56.80
2018-05-08T06:24:10.438Z,56.70
2018-05-08T06:26:38.427Z,56.60
2018-05-08T06:29:06.523Z,56.70
2018-05-08T06:31:34.452Z,56.50
2018-05-08T06:34:02.362Z,56.40
2018-05-08T06:43:56.930Z,56.60
2018-05-08T06:48:54.384Z,56.10
2018-05-08T06:51:22.591Z,56.20
2018-05-08T06:53:50.496Z,56.20
2018-05-08T06:56:18.399Z,56.00
2018-05-08T06:58:46.333Z,56.10
2018-05-08T07:01:14.418Z,56.30
2018-05-08T07:03:42.324Z,56.40
2018-05-08T07:06:10.241Z,56.70
2018-05-08T07:08:38.146Z,56.00
2018-05-08T08:37:41.845Z,56.50
2018-05-08T08:40:10.613Z,56.20
2018-05-08T08:42:38.511Z,56.50
2018-05-08T08:45:06.437Z,56.20
2018-05-08T08:47:34.435Z,54.90
2018-05-08T08:50:02.262Z,55.10
2018-05-08T08:52:30.233Z,54.80
2018-05-08T08:54:58.118Z,55.40
2018-05-08T08:57:26.022Z,54.90
2018-05-08T08:59:53.963Z,55.10
2018-05-08T09:02:21.860Z,54.40
2018-05-08T09:04:49.758Z,54.60
2018-05-08T09:07:17.694Z,55.30
2018-05-08T09:09:46.113Z,54.80
2018-05-08T09:12:14.030Z,55.60
2018-05-08T09:14:41.965Z,55.20
2018-05-08T09:17:09.877Z,54.60
2018-05-08T09:19:37.776Z,55.10
2018-05-08T09:22:05.733Z,53.90
2018-05-08T09:27:02.714Z,53.20
2018-05-08T09:29:30.697Z,53.60
2018-05-08T09:31:58.618Z,54.30
2018-05-08T09:34:26.528Z,54.30
2018-05-08T09:36:54.679Z,54.30
2018-05-08T09:39:22.642Z,53.00
2018-05-08T09:41:50.778Z,52.50
2018-05-08T09:44:18.705Z,52.90
2018-05-08T09:49:28.075Z,52.90
2018-05-08T09:51:55.980Z,53.00
2018-05-08T09:54:23.888Z,52.80
2018-05-08T09:56:51.850Z,52.40
2018-05-08T09:59:19.757Z,52.00
2018-05-08T10:01:48.395Z,51.70
2018-05-08T10:04:16.398Z,51.00
2018-05-08T10:06:45.103Z,51.20
2018-05-08T10:09:12.998Z,51.00
2018-05-08T10:11:41.145Z,51.40
2018-05-08T10:14:09.050Z,50.50
2018-05-08T10:16:36.949Z,50.40
2018-05-08T10:19:04.880Z,49.70
2018-05-08T10:21:33.495Z,50.10
2018-05-08T10:24:01.802Z,49.00
2018-05-08T10:26:29.739Z,49.30
2018-05-08T10:28:57.639Z,48.80
2018-05-08T10:31:25.551Z,48.20
2018-05-08T10:33:53.484Z,48.40
2018-05-08T10:36:21.597Z,48.20
2018-05-08T10:38:49.489Z,47.60
2018-05-08T10:41:17.425Z,47.30
2018-05-08T10:43:45.458Z,46.70
2018-05-08T10:46:13.445Z,46.90
2018-05-08T10:48:41.357Z,46.50
2018-05-08T10:51:43.701Z,46.40
2018-05-08T10:56:49.905Z,45.40
2018-05-08T10:59:17.805Z,45.40
2018-05-08T11:01:45.809Z,44.60
2018-05-08T11:06:47.753Z,43.20
2018-05-08T11:09:15.873Z,42.90
2018-05-08T11:11:43.779Z,43.30
2018-05-08T11:14:12.626Z,43.00
2018-05-08T11:19:10.690Z,42.30
2018-05-08T11:21:38.609Z,42.50
2018-05-08T11:30:22.744Z,41.30
2018-05-08T11:32:50.655Z,41.30
2018-05-08T11:35:19.380Z,41.30
2018-05-08T11:37:47.481Z,40.60
2018-05-08T11:40:17.793Z,39.60
2018-05-08T11:42:46.497Z,39.00
2018-05-08T11:45:14.477Z,38.40
2018-05-08T11:47:43.259Z,37.80
2018-05-08T11:50:11.447Z,36.30
2018-05-08T11:52:39.392Z,34.90
2018-05-08T11:55:10.480Z,32.60
2018-05-08T11:57:39.654Z,31.90
2018-05-08T12:00:07.558Z,30.80
2018-05-08T12:02:35.835Z,29.80
2018-05-08T12:05:03.771Z,30.20
2018-05-08T12:07:31.679Z,29.70
2018-05-08T12:10:00.050Z,29.50
2018-05-08T12:12:28.645Z,29.30
2018-05-08T12:14:56.770Z,29.30
2018-05-08T12:17:24.739Z,29.30
2018-05-08T12:19:52.704Z,28.90
2018-05-08T12:22:20.988Z,28.90
2018-05-08T12:24:49.760Z,28.70
2018-05-08T12:27:18.322Z,28.60
2018-05-08T12:29:47.838Z,28.90
2018-05-08T12:32:15.850Z,28.80
2018-05-08T12:34:44.294Z,29.00
2018-05-08T12:37:13.626Z,29.70
2018-05-08T12:39:41.557Z,29.40
2018-05-08T12:47:53.480Z,30.40
2018-05-08T12:50:21.388Z,30.70
2018-05-08T12:52:49.529Z,30.80
2018-05-08T12:55:17.675Z,31.20
2018-05-08T12:57:45.587Z,30.60
2018-05-08T13:00:13.542Z,30.20
2018-05-08T13:02:41.529Z,30.40
2018-05-08T13:05:09.579Z,30.30
2018-05-08T13:07:37.555Z,30.50
2018-05-08T13:10:05.497Z,30.90
2018-05-08T13:12:33.738Z,30.40
2018-05-08T13:15:05.882Z,30.20
2018-05-08T13:17:33.936Z,29.90
2018-05-08T13:20:01.907Z,29.50
2018-05-08T13:22:30.038Z,29.20
2018-05-08T13:24:58.445Z,29.00
2018-05-08T13:27:27.324Z,29.10
2018-05-08T13:29:55.538Z,29.60
2018-05-08T13:32:23.607Z,29.10
2018-05-08T13:35:16.511Z,29.00
2018-05-08T13:40:31.349Z,29.10
2018-05-08T13:42:59.335Z,28.20
2018-05-08T13:45:27.861Z,27.60
2018-05-08T13:47:57.289Z,27.10
2018-05-08T13:50:25.345Z,27.50
2018-05-08T13:52:53.277Z,27.00
2018-05-08T13:55:21.257Z,27.10
2018-05-08T13:57:49.362Z,27.20
2018-05-08T14:00:35.715Z,26.50
2018-05-08T14:03:23.696Z,26.60
2018-05-08T14:05:52.212Z,26.60
2018-05-08T14:08:21.039Z,26.10
2018-05-08T14:10:48.968Z,26.60
2018-05-08T14:13:16.886Z,27.20
2018-05-08T14:15:44.790Z,26.90
2018-05-08T14:23:52.150Z,28.50
2018-05-08T14:26:20.653Z,27.40
2018-05-08T14:28:48.573Z,28.00
2018-05-08T14:31:16.542Z,27.50
2018-05-08T14:33:44.470Z,28.40
2018-05-08T14:36:13.547Z,28.70
2018-05-08T14:38:41.525Z,28.80
2018-05-08T14:41:09.425Z,28.50
2018-05-08T14:43:37.387Z,28.70
2018-05-08T14:46:05.566Z,28.80
2018-05-08T14:48:37.303Z,29.20
2018-05-08T14:51:07.027Z,28.60
2018-05-08T14:53:36.479Z,28.80
2018-05-08T14:56:04.454Z,28.20
2018-05-08T14:58:32.923Z,28.10
2018-05-08T15:01:00.840Z,27.60
2018-05-08T15:03:28.912Z,26.80
2018-05-08T15:05:56.890Z,27.60
2018-05-08T15:08:25.063Z,28.40
2018-05-08T15:10:53.174Z,28.30
2018-05-08T15:13:21.116Z,28.60
2018-05-08T15:15:49.028Z,28.20
2018-05-08T15:18:17.176Z,28.20
2018-05-08T15:20:45.631Z,28.20
2018-05-08T15:23:13.591Z,28.90
2018-05-08T15:25:41.540Z,28.60
2018-05-08T15:28:10.159Z,28.00
2018-05-08T15:30:38.206Z,28.70
2018-05-08T15:35:35.257Z,29.90
2018-05-08T15:38:03.243Z,30.00
2018-05-08T15:40:31.802Z,30.10
2018-05-08T15:42:59.801Z,29.40
2018-05-08T15:45:27.705Z,29.50
2018-05-08T15:47:55.702Z,29.90
2018-05-08T15:50:23.820Z,30.00
2018-05-08T15:52:53.661Z,30.00
2018-05-08T16:08:16.860Z,31.90
2018-05-08T16:10:45.563Z,32.00
2018-05-08T16:13:13.576Z,32.10
2018-05-08T16:15:41.588Z,32.20
2018-05-08T16:18:09.662Z,32.20
2018-05-08T16:20:38.652Z,32.30
2018-05-08T16:25:35.458Z,32.90
2018-05-08T16:28:06.486Z,32.90
2018-05-08T16:30:36.152Z,32.90
2018-05-08T16:33:04.085Z,33.50
2018-05-08T16:35:32.711Z,33.70
2018-05-08T16:38:00.667Z,33.30
2018-05-08T16:40:29.190Z,33.40
2018-05-08T16:42:57.621Z,33.10
2018-05-08T16:45:26.164Z,33.20
2018-05-08T16:47:54.081Z,33.90
2018-05-08T16:50:21.983Z,34.00
2018-05-08T16:52:49.915Z,33.80
2018-05-08T16:55:18.034Z,33.70
2018-05-08T16:57:45.963Z,33.50
2018-05-08T17:00:13.905Z,34.20
2018-05-08T17:02:41.800Z,34.50
2018-05-08T17:05:09.994Z,34.90
2018-05-08T17:07:37.963Z,36.00
2018-05-08T17:10:05.868Z,35.80
2018-05-08T17:12:33.782Z,36.30
2018-05-08T17:15:01.732Z,37.00
2018-05-08T17:17:29.975Z,36.80
2018-05-08T17:19:57.879Z,37.50
2018-05-08T17:22:26.540Z,37.90
2018-05-08T17:24:54.451Z,38.00
2018-05-08T17:27:22.366Z,38.50
2018-05-08T17:29:50.323Z,38.90
2018-05-08T17:32:18.242Z,39.20
2018-05-08T17:34:46.154Z,39.10
2018-05-08T17:37:14.103Z,39.60
2018-05-08T17:39:42.428Z,39.40
2018-05-08T17:42:10.376Z,39.50
2018-05-08T17:44:38.599Z,39.70
2018-05-08T17:47:07.703Z,39.70
2018-05-08T17:49:35.644Z,40.00
2018-05-08T17:52:03.629Z,39.70
2018-05-08T17:54:32.330Z,39.70
2018-05-08T17:57:00.247Z,40.10
2018-05-08T17:59:28.212Z,40.00
2018-05-08T18:01:56.127Z,40.10
2018-05-08T18:04:24.143Z,40.50
2018-05-08T18:06:52.039Z,40.60
2018-05-08T18:09:19.956Z,40.90
2018-05-08T18:11:47.875Z,41.10
2018-05-08T18:14:15.805Z,41.00
2018-05-08T18:16:43.710Z,41.40
2018-05-08T18:19:11.633Z,41.40
2018-05-08T18:21:39.595Z,41.90
2018-05-08T18:24:07.517Z,42.10
2018-05-08T18:26:35.417Z,42.60
2018-05-08T18:29:04.294Z,42.30
2018-05-08T18:31:32.217Z,42.50
2018-05-08T18:34:00.416Z,43.00
2018-05-08T18:36:28.450Z,42.90
2018-05-08T18:38:56.389Z,43.10
2018-05-08T18:41:24.353Z,43.20
2018-05-08T18:43:52.304Z,43.60
2018-05-08T18:46:20.242Z,43.90
2018-05-08T18:48:48.164Z,43.90
2018-05-08T18:51:16.158Z,44.20
2018-05-08T18:53:44.091Z,44.20
2018-05-08T18:56:12.089Z,44.40
2018-05-08T18:58:40.099Z,44.70
2018-05-08T19:01:08.059Z,45.10
2018-05-08T19:03:36.030Z,45.10
2018-05-08T19:06:04.038Z,45.20
2018-05-08T19:08:31.992Z,45.20
2018-05-08T19:11:05.681Z,45.40
2018-05-08T19:13:33.647Z,45.60
2018-05-08T19:16:03.461Z,45.60
2018-05-08T19:18:37.155Z,45.70
2018-05-08T19:21:06.031Z,45.60
2018-05-08T19:23:34.436Z,45.60
2018-05-08T19:26:02.463Z,45.60
2018-05-08T19:28:36.017Z,46.10
2018-05-08T19:31:04.072Z,46.30
2018-05-08T19:33:32.118Z,46.50
2018-05-08T19:36:06.511Z,46.50
2018-05-08T19:38:34.649Z,47.10
2018-05-08T19:41:03.217Z,47.20
2018-05-08T19:43:31.239Z,47.30
2018-05-08T19:45:59.244Z,47.20
2018-05-08T19:48:27.242Z,47.60
2018-05-08T19:50:55.294Z,47.60
2018-05-08T19:53:24.107Z,47.10
2018-05-08T19:55:52.691Z,47.60
2018-05-08T19:58:20.734Z,47.80
2018-05-08T20:00:48.705Z,47.80
2018-05-08T20:05:50.968Z,47.80
2018-05-08T20:08:18.944Z,48.40
2018-05-08T20:10:47.037Z,48.40
2018-05-08T20:13:15.027Z,48.20
2018-05-08T20:15:43.015Z,48.10
2018-05-08T20:18:12.070Z,47.90
2018-05-08T20:20:40.067Z,48.20
2018-05-08T20:23:08.076Z,48.00
2018-05-08T20:25:36.275Z,48.00
2018-05-08T20:28:04.287Z,48.20
2018-05-08T20:30:32.299Z,48.20
2018-05-08T20:33:00.264Z,47.90
2018-05-08T20:35:28.545Z,47.90
2018-05-08T20:37:56.707Z,47.90
2018-05-08T20:40:24.634Z,48.30
2018-05-08T20:42:52.598Z,48.30
2018-05-08T20:47:49.500Z,48.50
2018-05-08T20:56:01.165Z,47.60
2018-05-08T20:58:29.123Z,48.80
2018-05-08T21:00:57.053Z,48.70
2018-05-08T21:03:25.004Z,49.10
2018-05-08T21:05:53.019Z,49.60
2018-05-08T21:15:48.037Z,49.00
2018-05-08T21:25:42.626Z,50.00
2018-05-08T21:30:51.070Z,50.50
2018-05-08T21:33:18.915Z,51.30
2018-05-08T21:35:46.839Z,50.80
2018-05-08T21:38:14.877Z,51.70
2018-05-08T21:40:42.795Z,51.20
2018-05-08T21:43:10.706Z,51.80
2018-05-08T21:45:38.643Z,51.40
2018-05-08T21:48:06.653Z,52.20
2018-05-08T21:53:03.599Z,52.40
2018-05-08T21:55:31.525Z,51.80
2018-05-08T21:57:59.463Z,52.90
2018-05-08T22:00:27.393Z,52.30
2018-05-08T22:02:55.326Z,53.00
2018-05-08T22:05:23.272Z,52.20
2018-05-08T22:07:51.242Z,53.30
2018-05-08T22:10:19.199Z,52.50
2018-05-08T22:12:47.821Z,53.50
2018-05-08T22:15:15.741Z,52.80
2018-05-08T22:17:44.877Z,53.60
2018-05-08T22:30:08.485Z,52.90
2018-05-08T22:32:36.395Z,54.00
2018-05-08T22:35:04.368Z,53.40
2018-05-08T22:37:32.382Z,53.20
2018-05-08T22:40:00.260Z,54.00
2018-05-08T22:42:28.208Z,53.50
2018-05-08T22:44:56.126Z,53.30
2018-05-08T22:47:24.035Z,53.20
2018-05-08T22:49:51.969Z,54.00
2018-05-08T22:52:20.730Z,53.20
2018-05-08T22:57:17.542Z,52.90
2018-05-08T22:59:45.445Z,53.90
2018-05-08T23:02:13.365Z,53.40
2018-05-08T23:04:41.386Z,53.30
2018-05-08T23:07:09.300Z,53.20
2018-05-08T23:09:37.557Z,53.30
2018-05-08T23:12:05.594Z,53.30
2018-05-08T23:14:33.504Z,53.30
2018-05-08T23:17:01.415Z,53.50
2018-05-08T23:21:58.228Z,54.20
2018-05-08T23:24:26.154Z,53.60
2018-05-08T23:26:54.093Z,53.80
2018-05-08T23:29:22.017Z,53.70
2018-05-08T23:31:49.967Z,54.00
2018-05-08T23:34:17.885Z,53.70
2018-05-08T23:36:45.799Z,53.80
2018-05-08T23:39:13.716Z,54.00
2018-05-08T23:41:42.296Z,54.10
2018-05-08T23:44:10.304Z,54.40
2018-05-08T23:46:38.258Z,54.60
2018-05-08T23:49:06.177Z,54.60
2018-05-08T23:51:34.106Z,54.60
2018-05-08T23:54:02.032Z,54.70
2018-05-08T23:56:29.943Z,54.80
